EGS weather

EgilsstaĆ°ir Airport
EgilsstaĆ°ir, Eastern Region, Iceland

Public forecast

Using degrees Celsius for public forecast. Weather courtesy of forecast.io.

METAR (pilot weather report)

Retrieved 2019/03/25 05:00 UTC (36 minutes ago):

BIEG 250500Z 00000KT 9999 SCT047 M05/M06 Q1023

TAF (pilot weather forecast)

Retrieved 2019/03/25 03:04 UTC (3 hours ago):

TAF BIEG 250101Z 2503/2603 36005KT 9999 FEW030 SCT040 TX07/2524Z TNM05/2506Z BECMG 2512/2514 17015KT BECMG 2518/2521 18018G28KT BECMG 2600/2603 22028G38KT